createdAt,value
2023-12-23T00:00:56.385Z,2.85
2023-12-23T00:03:23.303Z,2.55
2023-12-23T00:05:50.204Z,3.22
2023-12-23T00:08:17.026Z,3.08
2023-12-23T00:10:43.894Z,3.63
2023-12-23T00:13:10.801Z,2.70
2023-12-23T00:15:37.513Z,3.03
2023-12-23T00:18:05.128Z,2.78
2023-12-23T00:20:32.203Z,2.45
2023-12-23T00:22:59.553Z,2.25
2023-12-23T00:25:26.627Z,2.47
2023-12-23T00:27:53.553Z,1.95
2023-12-23T00:30:20.529Z,2.30
2023-12-23T00:32:47.756Z,2.72
2023-12-23T00:35:14.743Z,3.00
2023-12-23T00:37:42.483Z,2.58
2023-12-23T00:40:09.653Z,2.55
2023-12-23T00:42:37.576Z,2.72
2023-12-23T00:45:06.716Z,2.65
2023-12-23T00:47:37.415Z,2.40
2023-12-23T00:50:06.105Z,2.78
2023-12-23T00:52:33.062Z,2.67
2023-12-23T00:55:01.032Z,2.80
2023-12-23T00:57:28.914Z,2.67
2023-12-23T00:59:59.077Z,2.28
2023-12-23T01:02:25.967Z,2.47
2023-12-23T01:04:55.220Z,3.03
2023-12-23T01:07:22.664Z,2.28
2023-12-23T01:09:49.488Z,2.78
2023-12-23T01:12:16.235Z,2.55
2023-12-23T01:14:43.145Z,2.45
2023-12-23T01:17:10.220Z,2.40
2023-12-23T01:19:40.983Z,2.35
2023-12-23T01:22:10.181Z,2.33
2023-12-23T01:24:36.987Z,2.40
2023-12-23T01:27:04.072Z,3.03
2023-12-23T01:29:30.896Z,3.30
2023-12-23T01:31:57.739Z,2.80
2023-12-23T01:34:24.494Z,3.10
2023-12-23T01:36:51.748Z,3.10
2023-12-23T01:39:19.543Z,2.90
2023-12-23T01:41:46.297Z,3.28
2023-12-23T01:44:13.217Z,2.92
2023-12-23T01:46:40.301Z,2.92
2023-12-23T01:49:08.349Z,3.22
2023-12-23T01:51:35.467Z,3.25
2023-12-23T01:54:06.099Z,2.90
2023-12-23T01:56:33.785Z,3.17
2023-12-23T01:59:03.634Z,2.95
2023-12-23T02:01:32.549Z,3.83
2023-12-23T02:04:00.611Z,3.00
2023-12-23T02:06:27.627Z,3.00
2023-12-23T02:08:54.859Z,3.28
2023-12-23T02:11:36.762Z,2.30
2023-12-23T02:14:23.075Z,2.40
2023-12-23T02:16:51.631Z,2.15
2023-12-23T02:19:18.641Z,1.60
2023-12-23T02:21:45.617Z,1.58
2023-12-23T02:24:13.241Z,2.40
2023-12-23T02:26:42.145Z,2.15
2023-12-23T02:29:09.865Z,1.70
2023-12-23T02:31:37.271Z,1.80
2023-12-23T02:34:04.340Z,2.17
2023-12-23T02:36:32.395Z,2.13
2023-12-23T02:38:59.126Z,2.25
2023-12-23T02:41:26.156Z,2.40
2023-12-23T02:43:53.120Z,1.90
2023-12-23T02:46:20.063Z,2.28
2023-12-23T02:48:46.880Z,1.90
2023-12-23T02:51:13.780Z,2.28
2023-12-23T02:53:40.540Z,2.13
2023-12-23T02:56:08.968Z,1.73
2023-12-23T02:58:36.482Z,2.15
2023-12-23T03:01:08.686Z,2.63
2023-12-23T03:03:36.750Z,2.40
2023-12-23T03:06:04.183Z,2.00
2023-12-23T03:08:31.009Z,2.75
2023-12-23T03:10:58.862Z,2.58
2023-12-23T03:13:25.730Z,2.63
2023-12-23T03:15:52.449Z,2.47
2023-12-23T03:18:19.353Z,2.67
2023-12-23T03:20:46.120Z,2.83
2023-12-23T03:23:13.190Z,2.60
2023-12-23T03:25:39.945Z,2.60
2023-12-23T03:28:07.136Z,2.03
2023-12-23T03:30:35.602Z,2.30
2023-12-23T03:33:02.446Z,2.17
2023-12-23T03:35:29.318Z,2.67
2023-12-23T03:37:56.211Z,2.40
2023-12-23T03:40:22.950Z,1.88
2023-12-23T03:42:50.228Z,1.88
2023-12-23T03:45:18.170Z,2.05
2023-12-23T03:47:44.999Z,2.67
2023-12-23T03:50:11.859Z,1.90
2023-12-23T03:52:38.717Z,2.22
2023-12-23T03:55:05.740Z,2.40
2023-12-23T03:57:32.603Z,2.40
2023-12-23T03:59:59.578Z,1.80
2023-12-23T04:02:26.436Z,1.92
2023-12-23T04:04:53.329Z,2.45
2023-12-23T04:07:20.126Z,2.38
2023-12-23T04:09:47.089Z,2.15
2023-12-23T04:12:13.992Z,2.33
2023-12-23T04:14:43.565Z,2.13
2023-12-23T04:17:10.374Z,2.33
2023-12-23T04:19:37.129Z,2.55
2023-12-23T04:22:04.549Z,2.03
2023-12-23T04:24:31.415Z,2.10
2023-12-23T04:26:58.178Z,2.28
2023-12-23T04:29:25.408Z,2.40
2023-12-23T04:31:52.327Z,2.00
2023-12-23T04:34:19.149Z,2.33
2023-12-23T04:36:46.454Z,2.78
2023-12-23T04:39:13.719Z,2.33
2023-12-23T04:41:47.822Z,2.47
2023-12-23T04:44:18.037Z,2.47
2023-12-23T04:46:48.824Z,2.15
2023-12-23T04:49:15.688Z,2.63
2023-12-23T04:51:46.152Z,2.35
2023-12-23T04:54:14.110Z,2.47
2023-12-23T04:56:41.430Z,2.78
2023-12-23T04:59:09.747Z,2.40
2023-12-23T05:01:36.899Z,2.60
2023-12-23T05:04:03.666Z,2.80
2023-12-23T05:06:30.443Z,2.25
2023-12-23T05:08:57.518Z,2.95
2023-12-23T05:11:25.211Z,2.25
2023-12-23T05:13:52.945Z,2.67
2023-12-23T05:16:19.738Z,2.55
2023-12-23T05:18:46.508Z,2.65
2023-12-23T05:21:13.337Z,2.58
2023-12-23T05:23:41.219Z,2.25
2023-12-23T05:26:08.122Z,2.00
2023-12-23T05:28:34.998Z,1.95
2023-12-23T05:31:01.797Z,1.95
2023-12-23T05:33:28.680Z,2.03
2023-12-23T05:35:55.953Z,2.67
2023-12-23T05:38:22.812Z,2.17
2023-12-23T05:40:49.628Z,1.92
2023-12-23T05:43:16.458Z,2.40
2023-12-23T05:45:43.333Z,1.80
2023-12-23T05:48:10.146Z,2.20
2023-12-23T05:50:37.621Z,1.80
2023-12-23T05:53:05.068Z,1.90
2023-12-23T05:55:32.429Z,2.03
2023-12-23T05:57:59.217Z,2.17
2023-12-23T06:00:25.969Z,1.70
2023-12-23T06:02:53.280Z,2.60
2023-12-23T06:05:20.371Z,2.25
2023-12-23T06:07:47.453Z,2.03
2023-12-23T06:10:14.225Z,2.35
2023-12-23T06:12:41.296Z,2.05
2023-12-23T06:15:08.538Z,2.25
2023-12-23T06:17:35.407Z,1.95
2023-12-23T06:20:02.328Z,1.73
2023-12-23T06:22:29.392Z,2.65
2023-12-23T06:24:56.124Z,2.17
2023-12-23T06:27:23.147Z,1.90
2023-12-23T06:29:49.866Z,2.35
2023-12-23T06:32:16.746Z,2.03
2023-12-23T06:34:43.712Z,2.40
2023-12-23T06:37:10.451Z,3.00
2023-12-23T06:39:37.202Z,2.15
2023-12-23T06:42:04.122Z,2.28
2023-12-23T06:44:30.890Z,2.50
2023-12-23T06:46:57.726Z,2.72
2023-12-23T06:49:25.507Z,2.55
2023-12-23T06:51:52.553Z,2.22
2023-12-23T06:54:19.254Z,2.75
2023-12-23T06:56:46.046Z,3.10
2023-12-23T06:59:14.272Z,2.38
2023-12-23T07:01:41.132Z,2.13
2023-12-23T07:04:09.209Z,3.00
2023-12-23T07:06:37.031Z,2.97
2023-12-23T07:09:06.312Z,2.83
2023-12-23T07:11:35.010Z,2.63
2023-12-23T07:14:01.930Z,3.10
2023-12-23T07:16:28.822Z,2.80
2023-12-23T07:18:56.037Z,2.60
2023-12-23T07:21:23.122Z,2.58
2023-12-23T07:23:50.074Z,2.72
2023-12-23T07:26:16.896Z,2.60
2023-12-23T07:28:43.866Z,2.45
2023-12-23T07:31:10.615Z,2.08
2023-12-23T07:33:37.478Z,2.70
2023-12-23T07:36:04.612Z,2.40
2023-12-23T07:38:31.443Z,2.40
2023-12-23T07:40:58.232Z,2.47
2023-12-23T07:43:25.057Z,2.20
2023-12-23T07:45:51.892Z,2.42
2023-12-23T07:48:18.697Z,1.73
2023-12-23T07:50:45.836Z,2.17
2023-12-23T07:53:12.663Z,1.90
2023-12-23T07:55:40.901Z,2.10
2023-12-23T07:58:07.770Z,2.00
2023-12-23T08:00:34.695Z,1.77
2023-12-23T08:03:01.532Z,1.75
2023-12-23T08:05:32.667Z,1.45
2023-12-23T08:07:59.776Z,2.53
2023-12-23T08:10:26.581Z,2.00
2023-12-23T08:12:53.810Z,1.58
2023-12-23T08:15:21.047Z,1.60
2023-12-23T08:17:48.240Z,1.65
2023-12-23T08:20:15.367Z,1.98
2023-12-23T08:22:42.800Z,2.65
2023-12-23T08:25:10.194Z,1.80
2023-12-23T08:27:38.856Z,1.27
2023-12-23T08:30:07.491Z,1.45
2023-12-23T08:32:34.942Z,1.75
2023-12-23T08:35:02.173Z,1.50
2023-12-23T08:37:29.162Z,1.30
2023-12-23T08:39:56.395Z,1.38
2023-12-23T08:42:23.832Z,1.58
2023-12-23T08:44:50.858Z,1.10
2023-12-23T08:47:18.393Z,1.02
2023-12-23T08:49:45.293Z,0.90
2023-12-23T08:52:12.104Z,1.13
2023-12-23T08:54:42.467Z,1.20
2023-12-23T08:57:09.866Z,1.13
2023-12-23T08:59:36.632Z,1.00
2023-12-23T09:02:05.051Z,0.95
2023-12-23T09:04:31.995Z,0.82
2023-12-23T09:06:59.314Z,0.88
2023-12-23T09:09:26.330Z,1.10
2023-12-23T09:11:54.097Z,1.00
2023-12-23T09:14:21.068Z,0.90
2023-12-23T09:16:47.889Z,0.90
2023-12-23T09:19:14.809Z,0.90
2023-12-23T09:21:41.677Z,0.85
2023-12-23T09:24:09.214Z,0.98
2023-12-23T09:26:36.794Z,0.80
2023-12-23T09:29:03.866Z,0.95
2023-12-23T09:31:32.009Z,0.77
2023-12-23T09:33:59.872Z,1.00
2023-12-23T09:36:26.763Z,1.10
2023-12-23T09:38:53.740Z,0.88
2023-12-23T09:41:21.112Z,0.70
2023-12-23T09:43:50.664Z,0.70
2023-12-23T09:46:19.807Z,0.80
2023-12-23T09:48:47.067Z,1.00
2023-12-23T09:51:14.115Z,0.90
2023-12-23T09:53:46.383Z,0.77
2023-12-23T09:56:13.937Z,0.90
2023-12-23T09:58:44.453Z,0.80
2023-12-23T10:01:11.508Z,0.80
2023-12-23T10:03:38.318Z,0.60
2023-12-23T10:06:05.418Z,0.75
2023-12-23T10:08:33.179Z,0.55
2023-12-23T10:10:59.933Z,0.60
2023-12-23T10:13:26.951Z,0.47
2023-12-23T10:15:53.913Z,0.63
2023-12-23T10:18:20.768Z,0.55
2023-12-23T10:20:48.104Z,0.75
2023-12-23T10:23:14.907Z,0.45
2023-12-23T10:25:41.812Z,0.55
2023-12-23T10:28:10.275Z,0.50
2023-12-23T10:30:40.369Z,0.60
2023-12-23T10:33:09.394Z,1.02
2023-12-23T10:35:45.778Z,0.40
2023-12-23T10:38:18.056Z,0.70
2023-12-23T10:41:11.337Z,0.50
2023-12-23T10:43:39.687Z,0.60
2023-12-23T10:46:08.849Z,0.57
2023-12-23T10:48:37.772Z,0.50
2023-12-23T10:51:05.545Z,0.40
2023-12-23T10:53:32.997Z,0.60
2023-12-23T10:55:59.896Z,0.40
2023-12-23T10:58:28.479Z,0.50
2023-12-23T11:00:56.993Z,0.68
2023-12-23T11:03:26.223Z,0.43
2023-12-23T11:05:56.789Z,0.50
2023-12-23T11:08:26.353Z,0.47
2023-12-23T11:10:53.462Z,0.80
2023-12-23T11:13:21.774Z,0.55
2023-12-23T11:15:48.942Z,0.50
2023-12-23T11:18:16.204Z,0.82
2023-12-23T11:20:44.556Z,0.50
2023-12-23T11:23:37.755Z,0.40
2023-12-23T11:26:05.314Z,0.60
2023-12-23T11:28:35.622Z,0.40
2023-12-23T11:31:04.676Z,0.50
2023-12-23T11:33:34.179Z,0.60
2023-12-23T11:36:02.709Z,0.70
2023-12-23T11:38:53.043Z,0.60
2023-12-23T11:41:21.616Z,0.63
2023-12-23T11:43:50.939Z,0.60
2023-12-23T11:46:25.162Z,0.80
2023-12-23T11:48:52.001Z,0.63
2023-12-23T11:51:18.849Z,0.75
2023-12-23T11:53:46.617Z,0.52
2023-12-23T11:56:14.787Z,0.57
2023-12-23T11:58:43.138Z,0.47
2023-12-23T12:01:09.966Z,0.77
2023-12-23T12:03:36.782Z,0.68
2023-12-23T12:06:03.960Z,0.75
2023-12-23T12:08:30.920Z,0.70
2023-12-23T12:11:02.161Z,1.02
2023-12-23T12:13:37.510Z,0.63
2023-12-23T12:16:05.543Z,0.70
2023-12-23T12:18:32.413Z,0.68
2023-12-23T12:20:59.560Z,0.68
2023-12-23T12:23:26.510Z,0.52
2023-12-23T12:25:58.218Z,0.73
2023-12-23T12:28:25.866Z,0.95
2023-12-23T12:30:52.928Z,0.70
2023-12-23T12:33:19.857Z,0.75
2023-12-23T12:35:47.645Z,0.70
2023-12-23T12:38:20.317Z,0.77
2023-12-23T12:40:51.243Z,0.80
2023-12-23T12:43:18.246Z,1.23
2023-12-23T12:45:49.705Z,1.00
2023-12-23T12:48:16.960Z,0.80
2023-12-23T12:50:45.221Z,0.80
2023-12-23T12:53:16.672Z,0.75
2023-12-23T12:55:43.549Z,0.88
2023-12-23T12:58:10.397Z,0.70
2023-12-23T13:00:37.883Z,0.90
2023-12-23T13:03:05.504Z,1.00
2023-12-23T13:05:32.308Z,1.33
2023-12-23T13:07:59.113Z,1.10
2023-12-23T13:10:25.846Z,1.40
2023-12-23T13:12:53.153Z,1.40
2023-12-23T13:15:20.286Z,2.30
2023-12-23T13:17:47.154Z,1.35
2023-12-23T13:20:14.528Z,0.98
2023-12-23T13:22:42.212Z,2.10
2023-12-23T13:25:10.569Z,1.60
2023-12-23T13:27:37.726Z,0.80
2023-12-23T13:30:05.220Z,1.13
2023-12-23T13:32:34.151Z,1.20
2023-12-23T13:35:04.893Z,2.05
2023-12-23T13:37:32.337Z,1.40
2023-12-23T13:40:39.266Z,1.00
2023-12-23T13:43:06.111Z,0.93
2023-12-23T13:45:32.847Z,0.90
2023-12-23T13:47:59.853Z,0.80
2023-12-23T13:50:26.798Z,1.58
2023-12-23T13:52:54.442Z,2.83
2023-12-23T13:55:21.666Z,1.88
2023-12-23T13:57:48.407Z,1.88
2023-12-23T14:00:15.629Z,1.00
2023-12-23T14:02:42.432Z,0.85
2023-12-23T14:05:09.470Z,0.85
2023-12-23T14:07:36.286Z,0.82
2023-12-23T14:10:03.063Z,0.70
2023-12-23T14:12:30.293Z,1.10
2023-12-23T14:14:57.080Z,0.80
2023-12-23T14:17:23.985Z,0.70
2023-12-23T14:19:50.865Z,0.70
2023-12-23T14:22:19.085Z,0.80
2023-12-23T14:24:46.415Z,0.88
2023-12-23T14:27:13.343Z,0.70
2023-12-23T14:29:40.397Z,0.60
2023-12-23T14:32:07.369Z,0.80
2023-12-23T14:34:36.614Z,0.70
2023-12-23T14:37:03.434Z,0.80
2023-12-23T14:39:30.484Z,0.60
2023-12-23T14:41:57.662Z,0.70
2023-12-23T14:44:24.462Z,0.70
2023-12-23T14:46:51.222Z,0.80
2023-12-23T14:49:18.078Z,0.73
2023-12-23T14:51:45.122Z,0.70
2023-12-23T14:54:11.819Z,0.90
2023-12-23T14:56:38.639Z,0.40
2023-12-23T14:59:05.558Z,0.80
2023-12-23T15:01:35.872Z,0.60
2023-12-23T15:04:04.050Z,0.63
2023-12-23T15:06:31.250Z,0.60
2023-12-23T15:08:58.030Z,0.90
2023-12-23T15:11:24.819Z,0.60
2023-12-23T15:13:51.662Z,0.65
2023-12-23T15:16:18.782Z,0.80
2023-12-23T15:18:45.694Z,0.82
2023-12-23T15:21:12.568Z,0.70
2023-12-23T15:23:39.356Z,0.77
2023-12-23T15:26:06.273Z,1.00
2023-12-23T15:28:33.296Z,0.90
2023-12-23T15:31:00.163Z,1.05
2023-12-23T15:33:27.043Z,0.60
2023-12-23T15:35:54.383Z,1.00
2023-12-23T15:38:21.196Z,0.75
2023-12-23T15:40:48.325Z,0.60
2023-12-23T15:43:15.999Z,0.75
2023-12-23T15:45:42.934Z,1.02
2023-12-23T15:48:09.879Z,0.70
2023-12-23T15:50:36.789Z,0.75
2023-12-23T15:53:04.917Z,1.35
2023-12-23T15:55:34.617Z,1.48
2023-12-23T15:58:05.735Z,0.82
2023-12-23T16:00:33.149Z,1.20
2023-12-23T16:03:02.363Z,1.00
2023-12-23T16:05:29.787Z,1.00
2023-12-23T16:07:56.676Z,0.98
2023-12-23T16:10:23.849Z,0.93
2023-12-23T16:12:50.803Z,1.00
2023-12-23T16:15:18.217Z,0.82
2023-12-23T16:17:45.266Z,0.80
2023-12-23T16:20:12.219Z,1.00
2023-12-23T16:22:39.067Z,1.00
2023-12-23T16:25:06.502Z,1.15
2023-12-23T16:27:35.681Z,1.33
2023-12-23T16:30:02.691Z,1.20
2023-12-23T16:32:32.044Z,1.10
2023-12-23T16:34:59.607Z,1.17
2023-12-23T16:37:26.361Z,1.52
2023-12-23T16:39:56.148Z,1.70
2023-12-23T16:42:22.966Z,1.70
2023-12-23T16:44:49.796Z,1.55
2023-12-23T16:47:16.817Z,1.52
2023-12-23T16:49:46.284Z,1.38
2023-12-23T16:52:13.633Z,1.60
2023-12-23T16:54:42.907Z,1.52
2023-12-23T16:57:09.700Z,1.17
2023-12-23T16:59:36.482Z,1.75
2023-12-23T17:02:06.657Z,1.42
2023-12-23T17:04:34.178Z,1.15
2023-12-23T17:07:16.185Z,1.45
2023-12-23T17:12:12.545Z,1.58
2023-12-23T17:14:39.329Z,1.30
2023-12-23T17:17:06.231Z,1.70
2023-12-23T17:19:34.705Z,0.85
2023-12-23T17:22:03.552Z,1.05
2023-12-23T17:24:30.770Z,1.35
2023-12-23T17:26:58.039Z,1.20
2023-12-23T17:29:24.966Z,1.30
2023-12-23T17:31:51.786Z,1.25
2023-12-23T17:34:21.021Z,1.02
2023-12-23T17:36:47.875Z,0.80
2023-12-23T17:39:21.941Z,0.77
2023-12-23T17:41:50.345Z,1.00
2023-12-23T17:44:25.277Z,0.90
2023-12-23T17:46:56.627Z,0.90
2023-12-23T17:49:26.127Z,0.88
2023-12-23T17:51:59.663Z,0.95
2023-12-23T17:54:27.859Z,0.90
2023-12-23T17:56:54.830Z,0.70
2023-12-23T17:59:24.372Z,0.90
2023-12-23T18:01:51.350Z,0.77
2023-12-23T18:04:18.164Z,0.70
2023-12-23T18:06:44.959Z,0.70
2023-12-23T18:09:13.492Z,1.00
2023-12-23T18:11:40.543Z,0.90
2023-12-23T18:14:07.344Z,1.02
2023-12-23T18:16:34.173Z,0.90
2023-12-23T18:19:01.613Z,1.25
2023-12-23T18:21:31.537Z,0.98
2023-12-23T18:23:58.470Z,0.73
2023-12-23T18:26:26.443Z,1.20
2023-12-23T18:28:53.850Z,1.15
2023-12-23T18:31:20.855Z,1.20
2023-12-23T18:33:47.806Z,1.20
2023-12-23T18:36:14.888Z,0.98
2023-12-23T18:38:41.621Z,1.20
2023-12-23T18:41:08.348Z,1.08
2023-12-23T18:43:36.206Z,0.90
2023-12-23T18:46:03.634Z,0.98
2023-12-23T18:48:30.525Z,1.00
2023-12-23T18:50:57.346Z,1.20
2023-12-23T18:53:24.135Z,2.45
2023-12-23T18:55:50.871Z,1.90
2023-12-23T18:58:17.841Z,1.92
2023-12-23T19:00:44.738Z,2.40
2023-12-23T19:03:13.597Z,1.33
2023-12-23T19:05:40.526Z,4.47
2023-12-23T19:08:08.238Z,7.85
2023-12-23T19:10:35.515Z,2.92
2023-12-23T19:13:02.381Z,1.23
2023-12-23T19:15:29.105Z,1.73
2023-12-23T19:17:56.155Z,0.80
2023-12-23T19:20:23.335Z,1.20
2023-12-23T19:22:50.514Z,1.00
2023-12-23T19:25:17.611Z,1.02
2023-12-23T19:27:44.353Z,1.00
2023-12-23T19:30:11.863Z,0.90
2023-12-23T19:32:41.645Z,0.88
2023-12-23T19:35:09.043Z,0.95
2023-12-23T19:37:36.867Z,1.20
2023-12-23T19:40:09.741Z,1.10
2023-12-23T19:42:37.982Z,0.80
2023-12-23T19:45:05.497Z,1.00
2023-12-23T19:47:33.637Z,0.75
2023-12-23T19:50:00.617Z,0.90
2023-12-23T19:52:27.810Z,0.80
2023-12-23T19:54:54.875Z,0.90
2023-12-23T19:57:21.720Z,0.85
2023-12-23T19:59:48.661Z,0.70
2023-12-23T20:02:15.683Z,0.90
2023-12-23T20:04:42.514Z,0.95
2023-12-23T20:07:11.512Z,1.00
2023-12-23T20:09:38.684Z,1.02
2023-12-23T20:12:07.927Z,0.95
2023-12-23T20:14:35.904Z,0.85
2023-12-23T20:17:03.149Z,1.00
2023-12-23T20:19:29.966Z,0.98
2023-12-23T20:21:56.905Z,0.80
2023-12-23T20:24:23.679Z,0.75
2023-12-23T20:26:52.092Z,0.70
2023-12-23T20:29:18.999Z,0.95
2023-12-23T20:31:45.997Z,0.90
2023-12-23T20:34:13.673Z,0.80
2023-12-23T20:36:42.458Z,0.90
2023-12-23T20:39:09.472Z,0.75
2023-12-23T20:41:38.949Z,0.90
2023-12-23T20:44:08.566Z,1.00
2023-12-23T20:46:35.445Z,1.10
2023-12-23T20:49:02.807Z,0.80
2023-12-23T20:51:31.078Z,1.10
2023-12-23T20:53:57.898Z,1.00
2023-12-23T20:56:30.297Z,1.15
2023-12-23T20:58:57.284Z,0.80
2023-12-23T21:01:24.413Z,1.13
2023-12-23T21:03:52.681Z,0.98
2023-12-23T21:06:19.885Z,1.10
2023-12-23T21:08:49.194Z,1.23
2023-12-23T21:11:19.675Z,1.30
2023-12-23T21:13:47.271Z,1.30
2023-12-23T21:16:14.332Z,0.95
2023-12-23T21:18:45.485Z,1.02
2023-12-23T21:21:12.995Z,0.60
2023-12-23T21:23:39.908Z,1.02
2023-12-23T21:26:14.809Z,0.77
2023-12-23T21:28:41.607Z,0.82
2023-12-23T21:31:09.199Z,0.73
2023-12-23T21:33:36.148Z,1.10
2023-12-23T21:36:03.130Z,0.95
2023-12-23T21:38:29.992Z,0.80
2023-12-23T21:40:56.793Z,1.08
2023-12-23T21:43:24.331Z,0.88
2023-12-23T21:45:51.130Z,1.10
2023-12-23T21:48:18.280Z,1.30
2023-12-23T21:50:45.216Z,1.30
2023-12-23T21:53:13.924Z,1.10
2023-12-23T21:55:41.302Z,1.35
2023-12-23T21:58:13.306Z,1.42
2023-12-23T22:00:41.005Z,1.25
2023-12-23T22:03:08.913Z,1.35
2023-12-23T22:05:35.946Z,1.20
2023-12-23T22:08:03.945Z,1.17
2023-12-23T22:10:33.562Z,0.93
2023-12-23T22:13:00.328Z,1.10
2023-12-23T22:15:27.149Z,1.00
2023-12-23T22:17:54.206Z,0.95
2023-12-23T22:20:22.505Z,1.05
2023-12-23T22:22:49.667Z,1.10
2023-12-23T22:25:18.948Z,1.25
2023-12-23T22:27:45.901Z,1.05
2023-12-23T22:30:13.071Z,1.02
2023-12-23T22:32:40.049Z,0.98
2023-12-23T22:35:07.126Z,1.33
2023-12-23T22:37:33.891Z,1.08
2023-12-23T22:40:01.286Z,1.20
2023-12-23T22:42:28.427Z,0.95
2023-12-23T22:44:55.435Z,1.20
2023-12-23T22:47:22.296Z,1.25
2023-12-23T22:49:50.488Z,1.15
2023-12-23T22:52:18.313Z,1.17
2023-12-23T22:54:45.159Z,1.00
2023-12-23T22:57:12.011Z,1.10
2023-12-23T22:59:38.937Z,1.00
2023-12-23T23:02:05.985Z,1.10
2023-12-23T23:04:33.048Z,0.93
2023-12-23T23:07:00.168Z,1.20
2023-12-23T23:09:30.113Z,1.20
2023-12-23T23:11:58.231Z,1.30
2023-12-23T23:14:25.414Z,1.08
2023-12-23T23:16:52.424Z,1.10
2023-12-23T23:19:19.709Z,1.70
2023-12-23T23:21:46.739Z,1.42
2023-12-23T23:24:13.513Z,1.20
2023-12-23T23:26:40.241Z,1.00
2023-12-23T23:29:07.035Z,1.40
2023-12-23T23:31:33.994Z,1.17
2023-12-23T23:34:00.785Z,1.40
2023-12-23T23:36:27.622Z,1.20
2023-12-23T23:38:54.539Z,1.45
2023-12-23T23:41:21.930Z,1.05
2023-12-23T23:43:48.895Z,1.38
2023-12-23T23:46:16.796Z,1.30
2023-12-23T23:48:44.414Z,1.15
2023-12-23T23:51:19.102Z,1.00
2023-12-23T23:53:46.023Z,1.20
2023-12-23T23:56:17.280Z,1.20
2023-12-23T23:58:46.757Z,1.20
